الصفحة الرئيسية
METAR-TAF:

METAR-TAF

مطار :

مطار مهرآباد الدولي

طهران, إيران

دائرة عرض: 35-41N, خط طول: 051-21E, ارتفاع: 1204 متر

مراقبة الطقس الحالي

تاريخ ووقت الإصدار 31 دقيقة قبل الساعة 18:30UTC
ريح 6 عقدة من الجنوب الشرقي
درجة الحرارة 33°درجة مئوية
الرطوبة 14%
ضغط 1012 hPa
الرؤية 10 كم أو أكثر
الغيوم لا تقل 1500 م ولا وجود لمزنة ركامية السحاب الأسود

METAR: OIII 141830Z 14006KT CAVOK 33/02 Q1011 A2987

زمن: 23:31 (19:01 UTC)

توقعات

تاريخ ووقت الإصدار 1ساعة و 31 دقيقة قبل الساعة 17:30UTC
التوقعات صالحة من14 الساعة 18 UTC إلى 15 الساعة 24 UTC
ريح 8 عقدة من الشمال/الشمال الغربي
الرؤية 10 كم أو أكثر
الغيوم لا تقل 1500 م ولا وجود لمزنة ركامية السحاب الأسود
أصبح
من 15 الساعة 06 UTC إلى 15 الساعة 08 UTC
ريح 10 عقدة من الجنوب الشرقي
أصبح
من 15 الساعة 18 UTC إلى 15 الساعة 20 UTC
ريح 6 عقدة من الشمال/الشمال الغربي

TAF: OIII 141730Z 1418/1524 33004MPS CAVOK BECMG 1506/1508 14005MPS BECMG 1518/1520 33003MPS

أرصاد الطقس والتوقعات من أكثر من 4000 مطار (تقارير الطقس للمطار METAR والتنبؤ بالطقس بالمطارTAF).

المحطات المتاحة هي النقط الصفراء والحمراء على الخريطة.

حرك المؤشر فوق النقطة لمعرفة اسم المحطة.

ثم انقر لمعرفة أرصاد وتوقعات الطقس.

لتغيير الخارطة: اضغط على الأزرار الخضراء مع رمز الصليب الأسود للتكبير. على الزر الأخضر مع شرطة للتصغير، أو على الأسهم الخضراء للخرائط المجاورة.


METAR-TAF: